createdAt,value
2022-11-10T00:01:20.232Z,90.30
2022-11-10T00:03:50.293Z,90.30
2022-11-10T00:06:17.556Z,90.20
2022-11-10T00:08:44.899Z,90.10
2022-11-10T00:11:12.983Z,90.10
2022-11-10T00:14:00.238Z,90.00
2022-11-10T00:16:46.168Z,89.90
2022-11-10T07:36:04.979Z,92.30
2022-11-10T07:38:32.950Z,92.40
2022-11-10T07:41:00.227Z,92.60
2022-11-10T07:43:27.544Z,92.50
2022-11-10T07:46:22.795Z,92.50
2022-11-10T07:49:04.008Z,92.60
2022-11-10T07:51:31.355Z,92.80
2022-11-10T07:53:58.743Z,92.50
2022-11-10T07:56:30.861Z,92.30
2022-11-10T07:59:02.896Z,92.20
2022-11-10T08:04:45.575Z,92.10
2022-11-10T08:07:26.824Z,92.10
2022-11-10T08:10:14.602Z,92.00
2022-11-10T08:13:08.951Z,92.10
2022-11-10T08:16:02.831Z,92.10
2022-11-10T08:18:51.356Z,92.00
2022-11-10T08:21:45.792Z,92.00
2022-11-10T08:24:35.573Z,92.00
2022-11-10T08:28:22.596Z,91.60
2022-11-10T08:33:48.741Z,91.30
2022-11-10T08:36:24.172Z,91.00
2022-11-10T08:38:56.494Z,91.20
2022-11-10T08:41:23.903Z,90.90
2022-11-10T08:43:51.278Z,90.90
2022-11-10T08:46:18.533Z,90.60
2022-11-10T08:48:45.799Z,90.50
2022-11-10T08:51:13.147Z,90.30
2022-11-10T08:53:40.487Z,90.00
2022-11-10T08:56:08.255Z,89.30
2022-11-10T08:58:47.304Z,89.10
2022-11-10T09:01:17.857Z,89.00
2022-11-10T09:03:45.128Z,87.90
2022-11-10T09:06:12.444Z,87.40
2022-11-10T09:08:39.724Z,86.50
2022-11-10T09:11:07.100Z,85.90
2022-11-10T09:13:35.757Z,85.50
2022-11-10T09:16:06.467Z,85.10
2022-11-10T09:18:34.143Z,84.50
2022-11-10T09:21:11.595Z,83.30
2022-11-10T09:23:38.926Z,83.90
2022-11-10T09:26:07.385Z,83.00
2022-11-10T09:28:34.712Z,82.60
2022-11-10T09:31:02.513Z,82.10
2022-11-10T09:33:29.820Z,82.70
2022-11-10T09:35:59.833Z,81.80
2022-11-10T09:38:27.240Z,82.40
2022-11-10T09:41:06.019Z,81.60
2022-11-10T09:44:24.534Z,80.60
2022-11-10T09:47:12.124Z,79.40
2022-11-10T09:49:56.870Z,78.80
2022-11-10T09:52:27.200Z,78.20
2022-11-10T09:55:12.430Z,78.40
2022-11-10T09:57:44.806Z,76.70
2022-11-10T10:00:18.330Z,76.30
2022-11-10T10:03:01.809Z,74.70
2022-11-10T10:06:13.363Z,74.30
2022-11-10T10:09:23.092Z,74.30
2022-11-10T10:12:57.180Z,71.70
2022-11-10T10:16:06.288Z,72.40
2022-11-10T10:19:19.163Z,71.20
2022-11-10T10:22:57.204Z,70.50
2022-11-10T10:25:27.804Z,68.20
2022-11-10T10:28:28.318Z,69.40
2022-11-10T10:31:26.762Z,68.50
2022-11-10T10:33:55.023Z,67.50
2022-11-10T10:36:31.591Z,67.30
2022-11-10T10:39:12.654Z,68.00
2022-11-10T10:41:46.122Z,67.20
2022-11-10T10:44:19.091Z,65.80
2022-11-10T10:47:02.855Z,65.80
2022-11-10T10:49:37.877Z,65.70
2022-11-10T10:52:12.452Z,62.90
2022-11-10T10:54:41.084Z,63.40
2022-11-10T10:57:31.685Z,61.60
2022-11-10T11:00:31.968Z,61.30
2022-11-10T11:03:51.546Z,59.70
2022-11-10T11:06:28.732Z,60.60
2022-11-10T11:09:17.388Z,58.60
2022-11-10T11:11:58.610Z,59.00
2022-11-10T11:14:30.006Z,58.80
2022-11-10T11:17:17.615Z,58.70
2022-11-10T11:19:45.394Z,59.50
2022-11-10T11:23:00.129Z,58.40
2022-11-10T11:25:43.472Z,57.20
2022-11-10T11:28:39.484Z,57.90
2022-11-10T11:31:43.192Z,56.80
2022-11-10T11:34:35.619Z,55.40
2022-11-10T11:38:00.213Z,55.20
2022-11-10T11:41:33.746Z,54.20
2022-11-10T11:44:53.581Z,54.40
2022-11-10T11:47:49.877Z,53.00
2022-11-10T11:50:54.088Z,53.80
2022-11-10T11:54:17.492Z,51.40
2022-11-10T11:56:48.976Z,49.90
2022-11-10T12:00:15.558Z,49.20
2022-11-10T12:03:37.590Z,49.10
2022-11-10T12:06:27.973Z,49.30
2022-11-10T12:09:54.028Z,48.20
2022-11-10T12:13:07.771Z,47.50
2022-11-10T12:16:36.342Z,46.80
2022-11-10T12:20:18.047Z,47.50
2022-11-10T12:24:11.856Z,47.50
2022-11-10T12:27:24.727Z,47.30
2022-11-10T12:30:24.787Z,48.30
2022-11-10T12:33:26.311Z,48.60
2022-11-10T12:35:55.322Z,49.20
2022-11-10T12:39:00.079Z,48.50
2022-11-10T12:41:58.563Z,48.40
2022-11-10T12:44:47.224Z,48.70
2022-11-10T12:47:20.095Z,48.90
2022-11-10T12:50:43.270Z,48.80
2022-11-10T12:53:39.552Z,49.00
2022-11-10T12:56:56.608Z,50.70
2022-11-10T12:59:36.314Z,50.80
2022-11-10T13:02:43.680Z,51.30
2022-11-10T13:05:45.344Z,52.10
2022-11-10T13:08:37.641Z,52.10
2022-11-10T13:11:11.144Z,52.00
2022-11-10T13:14:00.664Z,53.10
2022-11-10T13:16:44.812Z,53.60
2022-11-10T13:19:38.770Z,54.40
2022-11-10T13:22:12.043Z,55.00
2022-11-10T13:24:44.408Z,55.80
2022-11-10T13:27:35.512Z,56.00
2022-11-10T13:30:02.973Z,56.30
2022-11-10T13:32:36.329Z,56.80
2022-11-10T13:35:55.779Z,56.90
2022-11-10T13:38:32.301Z,56.80
2022-11-10T13:41:26.214Z,57.50
2022-11-10T13:43:56.310Z,57.60
2022-11-10T13:46:46.263Z,57.70
2022-11-10T13:50:10.536Z,57.80
2022-11-10T13:53:56.507Z,58.00
2022-11-10T13:57:30.377Z,58.10
2022-11-10T14:00:17.926Z,58.70
2022-11-10T14:03:03.429Z,59.00
2022-11-10T14:05:33.002Z,58.70
2022-11-10T14:08:25.047Z,59.20
2022-11-10T14:11:02.438Z,59.20
2022-11-10T14:14:00.767Z,59.30
2022-11-10T14:16:32.832Z,59.70
2022-11-10T14:19:41.700Z,59.10
2022-11-10T14:22:35.210Z,59.30
2022-11-10T14:25:24.479Z,59.30
2022-11-10T14:27:57.995Z,59.40
2022-11-10T14:30:33.521Z,59.50
2022-11-10T14:33:13.697Z,59.20
2022-11-10T14:36:08.930Z,59.50
2022-11-10T14:38:44.855Z,60.00
2022-11-10T14:41:22.613Z,59.80
2022-11-10T14:44:13.171Z,59.80
2022-11-10T14:46:42.459Z,59.90
2022-11-10T14:49:11.335Z,60.10
2022-11-10T14:51:38.895Z,60.50
2022-11-10T14:54:11.940Z,60.40
2022-11-10T14:56:42.519Z,60.40
2022-11-10T14:59:13.351Z,61.00
2022-11-10T15:01:55.381Z,60.60
2022-11-10T15:04:33.515Z,60.50
2022-11-10T15:07:01.048Z,60.40
2022-11-10T15:09:32.187Z,60.60
2022-11-10T15:12:27.643Z,60.10
2022-11-10T15:15:00.730Z,60.20
2022-11-10T15:17:51.314Z,60.10
2022-11-10T15:20:41.297Z,60.30
2022-11-10T15:23:33.732Z,60.80
2022-11-10T15:26:01.417Z,60.90
2022-11-10T15:28:35.884Z,60.70
2022-11-10T15:31:10.721Z,60.90
2022-11-10T15:33:45.418Z,60.80
2022-11-10T15:36:24.984Z,60.20
2022-11-10T15:39:19.881Z,60.00
2022-11-10T15:41:50.701Z,60.00
2022-11-10T15:44:24.235Z,59.60
2022-11-10T15:46:58.870Z,59.20
2022-11-10T15:49:41.108Z,59.40
2022-11-10T15:52:22.640Z,59.00
2022-11-10T15:54:51.557Z,59.60
2022-11-10T15:57:19.795Z,59.30
2022-11-10T15:59:47.096Z,59.30
2022-11-10T16:02:26.107Z,59.20
2022-11-10T16:04:59.495Z,59.10
2022-11-10T16:07:27.368Z,59.50
2022-11-10T16:09:54.643Z,59.20
2022-11-10T16:12:23.332Z,59.30
2022-11-10T16:14:53.300Z,59.50
2022-11-10T16:17:20.671Z,59.70
2022-11-10T16:19:48.308Z,59.80
2022-11-10T16:22:15.656Z,59.90
2022-11-10T16:24:43.130Z,60.00
2022-11-10T16:27:14.920Z,60.20
2022-11-10T16:29:42.960Z,60.30
2022-11-10T16:32:11.849Z,60.50
2022-11-10T16:34:39.191Z,60.70
2022-11-10T16:37:06.560Z,60.70
2022-11-10T16:39:33.937Z,60.90
2022-11-10T16:42:01.357Z,61.00
2022-11-10T16:44:28.688Z,61.20
2022-11-10T16:46:57.333Z,61.30
2022-11-10T16:49:35.165Z,61.60
2022-11-10T16:52:15.223Z,62.10
2022-11-10T16:54:42.541Z,62.30
2022-11-10T16:57:17.643Z,62.50
2022-11-10T16:59:45.765Z,62.90
2022-11-10T17:02:35.691Z,63.00
2022-11-10T17:05:03.834Z,62.90
2022-11-10T17:07:32.456Z,63.20
2022-11-10T17:10:01.344Z,63.50
2022-11-10T17:12:28.701Z,63.60
2022-11-10T17:14:56.011Z,64.00
2022-11-10T17:17:24.430Z,64.30
2022-11-10T17:19:52.078Z,64.60
2022-11-10T17:22:23.018Z,65.20
2022-11-10T17:24:56.176Z,65.90
2022-11-10T17:27:26.203Z,66.50
2022-11-10T17:29:53.757Z,66.60
2022-11-10T17:32:27.836Z,67.00
2022-11-10T17:35:05.215Z,67.20
2022-11-10T17:37:32.492Z,67.50
2022-11-10T17:40:23.396Z,67.90
2022-11-10T17:42:50.918Z,68.30
2022-11-10T17:45:25.669Z,68.60
2022-11-10T17:47:54.128Z,68.80
2022-11-10T17:50:24.247Z,68.90
2022-11-10T17:52:51.611Z,69.10
2022-11-10T17:55:33.771Z,69.30
2022-11-10T17:58:01.625Z,69.40
2022-11-10T18:00:29.928Z,69.80
2022-11-10T18:02:57.328Z,70.10
2022-11-10T18:05:24.638Z,70.40
2022-11-10T18:07:53.047Z,70.20
2022-11-10T18:10:20.577Z,70.30
2022-11-10T18:12:48.012Z,70.80
2022-11-10T18:15:17.404Z,71.00
2022-11-10T18:17:47.372Z,71.30
2022-11-10T18:20:15.123Z,71.70
2022-11-10T18:22:42.408Z,71.70
2022-11-10T18:25:10.467Z,72.00
2022-11-10T18:27:37.966Z,72.10
2022-11-10T18:30:06.667Z,72.40
2022-11-10T18:32:33.974Z,72.60
2022-11-10T18:35:01.260Z,72.60
2022-11-10T18:37:30.709Z,73.10
2022-11-10T18:39:57.991Z,73.20
2022-11-10T18:42:25.263Z,73.70
2022-11-10T18:44:52.697Z,73.70
2022-11-10T18:47:20.069Z,73.80
2022-11-10T18:49:47.336Z,74.40
2022-11-10T18:52:15.463Z,74.50
2022-11-10T18:54:42.721Z,74.80
2022-11-10T18:57:16.630Z,75.00
2022-11-10T18:59:44.074Z,75.00
2022-11-10T19:02:15.121Z,75.20
2022-11-10T19:04:42.503Z,75.20
2022-11-10T19:07:09.815Z,75.50
2022-11-10T19:09:37.112Z,75.40
2022-11-10T19:12:04.777Z,75.50
2022-11-10T19:14:32.046Z,75.90
2022-11-10T19:16:59.303Z,76.20
2022-11-10T19:19:27.028Z,76.10
2022-11-10T19:21:54.304Z,76.50
2022-11-10T19:24:27.843Z,76.60
2022-11-10T19:26:55.695Z,77.00
2022-11-10T19:29:22.976Z,77.10
2022-11-10T19:31:50.482Z,76.90
2022-11-10T19:34:19.495Z,77.20
2022-11-10T19:36:46.824Z,77.60
2022-11-10T19:39:14.748Z,77.80
2022-11-10T19:41:42.256Z,78.10
2022-11-10T19:44:09.528Z,78.20
2022-11-10T19:46:38.908Z,78.40
2022-11-10T19:49:06.311Z,78.60
2022-11-10T19:51:34.268Z,78.50
2022-11-10T19:54:03.129Z,78.70
2022-11-10T19:56:34.465Z,78.70
2022-11-10T19:59:02.196Z,78.90
2022-11-10T20:01:33.369Z,79.30
2022-11-10T20:04:01.311Z,79.10
2022-11-10T20:06:28.647Z,79.10
2022-11-10T20:08:55.978Z,79.30
2022-11-10T20:11:27.083Z,79.30
2022-11-10T20:14:00.456Z,79.70
2022-11-10T20:16:27.799Z,79.60
2022-11-10T20:18:55.327Z,79.40
2022-11-10T20:21:23.741Z,79.60
2022-11-10T20:23:57.439Z,79.60
2022-11-10T20:26:25.527Z,79.50
2022-11-10T20:28:53.108Z,79.70
2022-11-10T20:31:26.209Z,80.00
2022-11-10T20:33:56.315Z,80.00
2022-11-10T20:36:30.995Z,80.00
2022-11-10T20:39:00.452Z,80.00
2022-11-10T20:41:31.077Z,80.40
2022-11-10T20:43:58.355Z,80.10
2022-11-10T20:46:53.854Z,80.20
2022-11-10T20:49:13.795Z,80.10
2022-11-10T20:51:42.493Z,80.30
2022-11-10T20:54:11.615Z,81.00
2022-11-10T20:56:39.767Z,81.00
2022-11-10T20:59:07.186Z,80.90
2022-11-10T21:01:34.748Z,81.10
2022-11-10T21:04:02.534Z,81.00
2022-11-10T21:06:29.855Z,80.60
2022-11-10T21:08:57.224Z,80.50
2022-11-10T21:11:43.095Z,80.50
2022-11-10T21:14:10.600Z,80.50
2022-11-10T21:16:37.896Z,80.90
2022-11-10T21:19:05.433Z,81.20
2022-11-10T21:21:35.592Z,81.80
2022-11-10T21:24:06.205Z,81.20
2022-11-10T21:26:35.722Z,81.20
2022-11-10T21:29:05.009Z,80.80
2022-11-10T21:31:33.238Z,80.90
2022-11-10T21:34:00.814Z,80.70
2022-11-10T21:36:29.663Z,80.40
2022-11-10T21:38:58.912Z,80.90
2022-11-10T21:41:26.979Z,80.40
2022-11-10T21:43:54.355Z,80.40
2022-11-10T21:46:21.700Z,80.70
2022-11-10T21:48:51.690Z,80.80
2022-11-10T21:51:22.152Z,81.40
2022-11-10T21:53:49.574Z,81.00
2022-11-10T21:56:18.627Z,80.80
2022-11-10T21:58:45.960Z,81.10
2022-11-10T22:01:19.249Z,81.40
2022-11-10T22:03:46.977Z,80.50
2022-11-10T22:06:18.538Z,80.50
2022-11-10T22:08:47.910Z,80.60
2022-11-10T22:11:39.725Z,80.50
2022-11-10T22:14:32.210Z,81.30
2022-11-10T22:17:19.108Z,80.70
2022-11-10T22:19:46.496Z,81.00
2022-11-10T22:22:16.704Z,81.00
2022-11-10T22:24:43.979Z,81.40
2022-11-10T22:27:11.275Z,81.30
2022-11-10T22:29:38.541Z,81.30
2022-11-10T22:32:05.961Z,81.60
2022-11-10T22:34:33.231Z,81.60
2022-11-10T22:37:00.591Z,81.60
2022-11-10T22:39:47.844Z,81.90
2022-11-10T22:42:33.798Z,81.80
2022-11-10T22:45:01.086Z,81.80
2022-11-10T22:47:48.316Z,81.80
2022-11-10T22:50:15.684Z,81.70
2022-11-10T22:52:42.946Z,81.60
2022-11-10T22:55:10.501Z,81.90
2022-11-10T22:57:38.083Z,82.00
2022-11-10T23:00:06.711Z,82.40
2022-11-10T23:02:33.983Z,82.40
2022-11-10T23:05:01.259Z,82.60
2022-11-10T23:07:29.230Z,82.50
2022-11-10T23:09:56.482Z,82.30
2022-11-10T23:12:24.555Z,82.30
2022-11-10T23:14:51.811Z,82.50
2022-11-10T23:17:19.100Z,82.40
2022-11-10T23:19:46.367Z,82.50
2022-11-10T23:22:13.647Z,82.20
2022-11-10T23:24:40.907Z,82.10
2022-11-10T23:27:08.191Z,82.30
2022-11-10T23:29:35.451Z,82.30
2022-11-10T23:32:02.703Z,82.30
2022-11-10T23:34:31.094Z,82.40
2022-11-10T23:36:58.352Z,82.40
2022-11-10T23:39:25.662Z,82.40
2022-11-10T23:41:52.929Z,82.10
2022-11-10T23:44:20.652Z,82.40
2022-11-10T23:46:47.903Z,82.30
2022-11-10T23:49:15.174Z,82.20
2022-11-10T23:51:42.503Z,82.00
2022-11-10T23:54:09.836Z,82.00
2022-11-10T23:56:37.097Z,82.50
2022-11-10T23:59:05.282Z,82.50
